sensor_id;sensor_type;location;lat;lon;timestamp;P1;durP1;ratioP1;P2;durP2;ratioP2
41233;SDS011;26968;42.686;23.352;2023-12-20T00:01:22;198.75;;;86.30;;
41233;SDS011;26968;42.686;23.352;2023-12-20T00:03:48;197.45;;;87.10;;
41233;SDS011;26968;42.686;23.352;2023-12-20T00:06:13;196.07;;;87.03;;
41233;SDS011;26968;42.686;23.352;2023-12-20T00:08:39;193.20;;;85.70;;
41233;SDS011;26968;42.686;23.352;2023-12-20T00:11:05;177.35;;;79.05;;
41233;SDS011;26968;42.686;23.352;2023-12-20T00:13:30;188.70;;;83.75;;
41233;SDS011;26968;42.686;23.352;2023-12-20T00:15:56;184.48;;;84.20;;
41233;SDS011;26968;42.686;23.352;2023-12-20T00:18:21;194.68;;;84.53;;
41233;SDS011;26968;42.686;23.352;2023-12-20T00:20:47;203.68;;;85.93;;
41233;SDS011;26968;42.686;23.352;2023-12-20T00:23:12;181.75;;;83.70;;
41233;SDS011;26968;42.686;23.352;2023-12-20T00:25:38;179.05;;;81.22;;
41233;SDS011;26968;42.686;23.352;2023-12-20T00:28:03;190.95;;;79.95;;
41233;SDS011;26968;42.686;23.352;2023-12-20T00:30:29;188.80;;;82.30;;
41233;SDS011;26968;42.686;23.352;2023-12-20T00:32:55;176.10;;;77.05;;
41233;SDS011;26968;42.686;23.352;2023-12-20T00:35:21;183.45;;;77.28;;
41233;SDS011;26968;42.686;23.352;2023-12-20T00:37:46;174.55;;;75.15;;
41233;SDS011;26968;42.686;23.352;2023-12-20T00:40:12;168.73;;;74.85;;
41233;SDS011;26968;42.686;23.352;2023-12-20T00:42:38;171.35;;;75.03;;
41233;SDS011;26968;42.686;23.352;2023-12-20T00:45:04;172.90;;;74.72;;
41233;SDS011;26968;42.686;23.352;2023-12-20T00:47:33;186.20;;;78.93;;
41233;SDS011;26968;42.686;23.352;2023-12-20T00:49:58;191.63;;;79.80;;
41233;SDS011;26968;42.686;23.352;2023-12-20T00:52:24;180.07;;;77.05;;
41233;SDS011;26968;42.686;23.352;2023-12-20T00:54:50;181.85;;;74.93;;
41233;SDS011;26968;42.686;23.352;2023-12-20T00:57:16;168.00;;;75.00;;
41233;SDS011;26968;42.686;23.352;2023-12-20T00:59:41;187.25;;;81.05;;
41233;SDS011;26968;42.686;23.352;2023-12-20T01:02:07;191.45;;;80.90;;
41233;SDS011;26968;42.686;23.352;2023-12-20T01:04:34;215.73;;;92.55;;
41233;SDS011;26968;42.686;23.352;2023-12-20T01:06:59;231.45;;;98.55;;
41233;SDS011;26968;42.686;23.352;2023-12-20T01:09:25;275.58;;;118.82;;
41233;SDS011;26968;42.686;23.352;2023-12-20T01:11:53;329.13;;;141.38;;
41233;SDS011;26968;42.686;23.352;2023-12-20T01:14:19;372.17;;;163.05;;
41233;SDS011;26968;42.686;23.352;2023-12-20T01:16:44;333.75;;;146.27;;
41233;SDS011;26968;42.686;23.352;2023-12-20T01:19:10;320.27;;;138.10;;
41233;SDS011;26968;42.686;23.352;2023-12-20T01:21:36;314.45;;;138.13;;
41233;SDS011;26968;42.686;23.352;2023-12-20T01:24:02;344.17;;;143.20;;
41233;SDS011;26968;42.686;23.352;2023-12-20T01:26:27;351.33;;;150.38;;
41233;SDS011;26968;42.686;23.352;2023-12-20T01:28:53;348.40;;;148.00;;
41233;SDS011;26968;42.686;23.352;2023-12-20T01:31:18;342.40;;;144.63;;
41233;SDS011;26968;42.686;23.352;2023-12-20T01:33:44;343.33;;;148.15;;
41233;SDS011;26968;42.686;23.352;2023-12-20T01:36:09;332.35;;;143.82;;
41233;SDS011;26968;42.686;23.352;2023-12-20T01:38:36;342.30;;;143.85;;
41233;SDS011;26968;42.686;23.352;2023-12-20T01:41:02;326.55;;;136.70;;
41233;SDS011;26968;42.686;23.352;2023-12-20T01:43:28;318.25;;;135.50;;
41233;SDS011;26968;42.686;23.352;2023-12-20T01:45:54;313.92;;;138.23;;
41233;SDS011;26968;42.686;23.352;2023-12-20T01:48:22;329.35;;;142.35;;
41233;SDS011;26968;42.686;23.352;2023-12-20T01:50:49;319.63;;;135.90;;
41233;SDS011;26968;42.686;23.352;2023-12-20T01:53:14;296.20;;;126.80;;
41233;SDS011;26968;42.686;23.352;2023-12-20T01:55:41;295.55;;;127.78;;
41233;SDS011;26968;42.686;23.352;2023-12-20T01:58:07;309.48;;;132.07;;
41233;SDS011;26968;42.686;23.352;2023-12-20T02:00:36;314.23;;;131.20;;
41233;SDS011;26968;42.686;23.352;2023-12-20T02:03:02;318.10;;;136.65;;
41233;SDS011;26968;42.686;23.352;2023-12-20T02:05:32;319.83;;;137.82;;
41233;SDS011;26968;42.686;23.352;2023-12-20T02:08:00;314.90;;;139.32;;
41233;SDS011;26968;42.686;23.352;2023-12-20T02:10:25;300.55;;;132.27;;
41233;SDS011;26968;42.686;23.352;2023-12-20T02:12:52;273.08;;;119.68;;
41233;SDS011;26968;42.686;23.352;2023-12-20T02:15:18;271.67;;;118.32;;
41233;SDS011;26968;42.686;23.352;2023-12-20T02:17:43;262.30;;;109.18;;
41233;SDS011;26968;42.686;23.352;2023-12-20T02:20:11;257.33;;;109.82;;
41233;SDS011;26968;42.686;23.352;2023-12-20T02:22:37;272.33;;;111.70;;
41233;SDS011;26968;42.686;23.352;2023-12-20T02:25:02;260.38;;;106.38;;
41233;SDS011;26968;42.686;23.352;2023-12-20T02:27:28;258.92;;;105.57;;
41233;SDS011;26968;42.686;23.352;2023-12-20T02:29:54;243.10;;;101.18;;
41233;SDS011;26968;42.686;23.352;2023-12-20T02:32:20;256.00;;;105.45;;
41233;SDS011;26968;42.686;23.352;2023-12-20T02:34:48;249.82;;;100.15;;
41233;SDS011;26968;42.686;23.352;2023-12-20T02:37:14;249.90;;;106.03;;
41233;SDS011;26968;42.686;23.352;2023-12-20T02:39:39;242.80;;;103.45;;
41233;SDS011;26968;42.686;23.352;2023-12-20T02:42:05;259.63;;;101.15;;
41233;SDS011;26968;42.686;23.352;2023-12-20T02:44:30;248.57;;;97.35;;
41233;SDS011;26968;42.686;23.352;2023-12-20T02:46:56;228.05;;;94.80;;
41233;SDS011;26968;42.686;23.352;2023-12-20T02:49:21;214.32;;;87.03;;
41233;SDS011;26968;42.686;23.352;2023-12-20T02:51:47;218.02;;;84.50;;
41233;SDS011;26968;42.686;23.352;2023-12-20T02:54:12;216.55;;;84.40;;
41233;SDS011;26968;42.686;23.352;2023-12-20T02:56:38;207.65;;;84.80;;
41233;SDS011;26968;42.686;23.352;2023-12-20T02:59:03;198.45;;;79.10;;
41233;SDS011;26968;42.686;23.352;2023-12-20T03:01:33;194.07;;;77.43;;
41233;SDS011;26968;42.686;23.352;2023-12-20T03:04:00;184.65;;;75.55;;
41233;SDS011;26968;42.686;23.352;2023-12-20T03:06:26;187.93;;;77.35;;
41233;SDS011;26968;42.686;23.352;2023-12-20T03:08:52;209.75;;;75.50;;
41233;SDS011;26968;42.686;23.352;2023-12-20T03:11:17;197.35;;;78.25;;
41233;SDS011;26968;42.686;23.352;2023-12-20T03:13:43;186.27;;;75.57;;
41233;SDS011;26968;42.686;23.352;2023-12-20T03:16:12;188.52;;;72.35;;
41233;SDS011;26968;42.686;23.352;2023-12-20T03:18:38;189.27;;;73.63;;
41233;SDS011;26968;42.686;23.352;2023-12-20T03:21:04;198.57;;;73.82;;
41233;SDS011;26968;42.686;23.352;2023-12-20T03:23:31;175.15;;;69.75;;
41233;SDS011;26968;42.686;23.352;2023-12-20T03:25:59;169.82;;;71.07;;
41233;SDS011;26968;42.686;23.352;2023-12-20T03:28:25;196.70;;;72.40;;
41233;SDS011;26968;42.686;23.352;2023-12-20T03:30:52;193.15;;;66.90;;
41233;SDS011;26968;42.686;23.352;2023-12-20T03:33:17;184.52;;;71.47;;
41233;SDS011;26968;42.686;23.352;2023-12-20T03:35:43;181.30;;;70.97;;
41233;SDS011;26968;42.686;23.352;2023-12-20T03:38:08;190.27;;;70.35;;
41233;SDS011;26968;42.686;23.352;2023-12-20T03:40:34;167.98;;;66.57;;
41233;SDS011;26968;42.686;23.352;2023-12-20T03:43:00;173.60;;;64.13;;
41233;SDS011;26968;42.686;23.352;2023-12-20T03:45:26;166.50;;;67.38;;
41233;SDS011;26968;42.686;23.352;2023-12-20T03:47:51;161.05;;;65.85;;
41233;SDS011;26968;42.686;23.352;2023-12-20T03:50:24;155.93;;;61.00;;
41233;SDS011;26968;42.686;23.352;2023-12-20T03:52:51;211.88;;;63.10;;
41233;SDS011;26968;42.686;23.352;2023-12-20T03:55:16;191.68;;;60.80;;
41233;SDS011;26968;42.686;23.352;2023-12-20T03:57:42;197.27;;;62.08;;
41233;SDS011;26968;42.686;23.352;2023-12-20T04:00:08;188.55;;;61.90;;
41233;SDS011;26968;42.686;23.352;2023-12-20T04:02:40;194.15;;;61.65;;
41233;SDS011;26968;42.686;23.352;2023-12-20T04:05:06;193.70;;;60.95;;
41233;SDS011;26968;42.686;23.352;2023-12-20T04:07:33;177.75;;;56.75;;
41233;SDS011;26968;42.686;23.352;2023-12-20T04:09:59;206.95;;;59.05;;
41233;SDS011;26968;42.686;23.352;2023-12-20T04:12:25;230.43;;;64.10;;
41233;SDS011;26968;42.686;23.352;2023-12-20T04:14:52;181.55;;;60.08;;
41233;SDS011;26968;42.686;23.352;2023-12-20T04:17:18;189.40;;;65.78;;
41233;SDS011;26968;42.686;23.352;2023-12-20T04:19:44;218.07;;;62.95;;
41233;SDS011;26968;42.686;23.352;2023-12-20T04:22:09;176.70;;;59.25;;
41233;SDS011;26968;42.686;23.352;2023-12-20T04:24:35;182.50;;;62.55;;
41233;SDS011;26968;42.686;23.352;2023-12-20T04:27:01;213.80;;;64.00;;
41233;SDS011;26968;42.686;23.352;2023-12-20T04:29:26;186.63;;;62.75;;
41233;SDS011;26968;42.686;23.352;2023-12-20T04:31:52;179.57;;;66.03;;
41233;SDS011;26968;42.686;23.352;2023-12-20T04:34:18;172.95;;;64.28;;
41233;SDS011;26968;42.686;23.352;2023-12-20T04:36:43;151.70;;;64.95;;
41233;SDS011;26968;42.686;23.352;2023-12-20T04:39:09;171.70;;;72.30;;
41233;SDS011;26968;42.686;23.352;2023-12-20T04:41:37;174.77;;;72.22;;
41233;SDS011;26968;42.686;23.352;2023-12-20T04:44:02;162.13;;;73.10;;
41233;SDS011;26968;42.686;23.352;2023-12-20T04:46:28;171.95;;;71.25;;
41233;SDS011;26968;42.686;23.352;2023-12-20T04:48:53;162.68;;;66.63;;
41233;SDS011;26968;42.686;23.352;2023-12-20T04:51:19;166.77;;;70.72;;
41233;SDS011;26968;42.686;23.352;2023-12-20T04:53:45;176.02;;;69.85;;
41233;SDS011;26968;42.686;23.352;2023-12-20T04:56:10;185.23;;;71.57;;
41233;SDS011;26968;42.686;23.352;2023-12-20T04:58:36;172.27;;;71.63;;
41233;SDS011;26968;42.686;23.352;2023-12-20T05:01:02;178.88;;;69.95;;
41233;SDS011;26968;42.686;23.352;2023-12-20T05:03:30;170.20;;;63.90;;
41233;SDS011;26968;42.686;23.352;2023-12-20T05:05:55;144.80;;;64.72;;
41233;SDS011;26968;42.686;23.352;2023-12-20T05:08:21;163.43;;;65.07;;
41233;SDS011;26968;42.686;23.352;2023-12-20T05:10:46;139.55;;;60.75;;
41233;SDS011;26968;42.686;23.352;2023-12-20T05:13:12;148.43;;;61.95;;
41233;SDS011;26968;42.686;23.352;2023-12-20T05:15:38;150.02;;;61.08;;
41233;SDS011;26968;42.686;23.352;2023-12-20T05:18:04;142.75;;;59.33;;
41233;SDS011;26968;42.686;23.352;2023-12-20T05:20:29;129.10;;;56.22;;
41233;SDS011;26968;42.686;23.352;2023-12-20T05:22:55;118.28;;;55.33;;
41233;SDS011;26968;42.686;23.352;2023-12-20T05:25:20;128.20;;;53.40;;
41233;SDS011;26968;42.686;23.352;2023-12-20T05:27:46;132.25;;;53.25;;
41233;SDS011;26968;42.686;23.352;2023-12-20T05:30:12;128.02;;;54.03;;
41233;SDS011;26968;42.686;23.352;2023-12-20T05:32:38;141.20;;;55.80;;
41233;SDS011;26968;42.686;23.352;2023-12-20T05:35:04;130.25;;;55.60;;
41233;SDS011;26968;42.686;23.352;2023-12-20T05:37:30;146.68;;;58.10;;
41233;SDS011;26968;42.686;23.352;2023-12-20T05:39:56;145.70;;;58.83;;
41233;SDS011;26968;42.686;23.352;2023-12-20T05:42:21;129.43;;;55.50;;
41233;SDS011;26968;42.686;23.352;2023-12-20T05:44:47;141.10;;;59.25;;
41233;SDS011;26968;42.686;23.352;2023-12-20T05:47:12;184.43;;;67.68;;
41233;SDS011;26968;42.686;23.352;2023-12-20T05:49:37;148.90;;;58.72;;
41233;SDS011;26968;42.686;23.352;2023-12-20T05:52:03;140.48;;;54.00;;
41233;SDS011;26968;42.686;23.352;2023-12-20T05:54:29;139.75;;;56.55;;
41233;SDS011;26968;42.686;23.352;2023-12-20T05:56:55;143.38;;;56.80;;
41233;SDS011;26968;42.686;23.352;2023-12-20T05:59:20;130.25;;;54.83;;
41233;SDS011;26968;42.686;23.352;2023-12-20T06:01:46;138.80;;;52.72;;
41233;SDS011;26968;42.686;23.352;2023-12-20T06:04:11;136.68;;;55.78;;
41233;SDS011;26968;42.686;23.352;2023-12-20T06:06:40;139.30;;;54.38;;
41233;SDS011;26968;42.686;23.352;2023-12-20T06:09:09;137.90;;;52.60;;
41233;SDS011;26968;42.686;23.352;2023-12-20T06:11:35;140.52;;;52.58;;
41233;SDS011;26968;42.686;23.352;2023-12-20T06:14:01;134.55;;;51.33;;
41233;SDS011;26968;42.686;23.352;2023-12-20T06:16:26;124.50;;;50.70;;
41233;SDS011;26968;42.686;23.352;2023-12-20T06:18:52;136.02;;;49.97;;
41233;SDS011;26968;42.686;23.352;2023-12-20T06:21:17;148.70;;;51.13;;
41233;SDS011;26968;42.686;23.352;2023-12-20T06:23:43;123.05;;;47.22;;
41233;SDS011;26968;42.686;23.352;2023-12-20T06:26:08;110.82;;;47.70;;
41233;SDS011;26968;42.686;23.352;2023-12-20T06:28:34;145.55;;;55.63;;
41233;SDS011;26968;42.686;23.352;2023-12-20T06:30:59;108.03;;;44.05;;
41233;SDS011;26968;42.686;23.352;2023-12-20T06:33:25;122.85;;;47.05;;
41233;SDS011;26968;42.686;23.352;2023-12-20T06:35:51;117.28;;;46.40;;
41233;SDS011;26968;42.686;23.352;2023-12-20T06:38:17;122.63;;;50.28;;
41233;SDS011;26968;42.686;23.352;2023-12-20T06:40:44;165.18;;;57.28;;
41233;SDS011;26968;42.686;23.352;2023-12-20T06:43:11;160.15;;;60.75;;
41233;SDS011;26968;42.686;23.352;2023-12-20T06:45:38;130.05;;;55.08;;
41233;SDS011;26968;42.686;23.352;2023-12-20T06:48:04;132.05;;;53.10;;
41233;SDS011;26968;42.686;23.352;2023-12-20T06:50:30;114.78;;;47.80;;
41233;SDS011;26968;42.686;23.352;2023-12-20T06:52:55;115.78;;;50.13;;
41233;SDS011;26968;42.686;23.352;2023-12-20T06:55:21;124.43;;;48.22;;
41233;SDS011;26968;42.686;23.352;2023-12-20T06:57:50;119.72;;;47.78;;
41233;SDS011;26968;42.686;23.352;2023-12-20T07:00:15;123.20;;;48.67;;
41233;SDS011;26968;42.686;23.352;2023-12-20T07:02:43;125.82;;;47.90;;
41233;SDS011;26968;42.686;23.352;2023-12-20T07:05:09;127.18;;;49.80;;
41233;SDS011;26968;42.686;23.352;2023-12-20T07:07:34;120.90;;;52.20;;
41233;SDS011;26968;42.686;23.352;2023-12-20T07:10:00;130.68;;;52.10;;
41233;SDS011;26968;42.686;23.352;2023-12-20T07:12:25;144.65;;;58.28;;
41233;SDS011;26968;42.686;23.352;2023-12-20T07:14:51;144.77;;;57.90;;
41233;SDS011;26968;42.686;23.352;2023-12-20T07:17:16;153.23;;;62.70;;
41233;SDS011;26968;42.686;23.352;2023-12-20T07:19:42;212.32;;;65.22;;
41233;SDS011;26968;42.686;23.352;2023-12-20T07:22:08;176.57;;;62.92;;
41233;SDS011;26968;42.686;23.352;2023-12-20T07:24:33;221.13;;;64.18;;
41233;SDS011;26968;42.686;23.352;2023-12-20T07:27:00;196.88;;;65.63;;
41233;SDS011;26968;42.686;23.352;2023-12-20T07:29:25;189.07;;;64.88;;
41233;SDS011;26968;42.686;23.352;2023-12-20T07:31:52;337.02;;;71.15;;
41233;SDS011;26968;42.686;23.352;2023-12-20T07:34:19;225.05;;;66.63;;
41233;SDS011;26968;42.686;23.352;2023-12-20T07:36:45;206.27;;;69.50;;
41233;SDS011;26968;42.686;23.352;2023-12-20T07:39:11;222.10;;;65.80;;
41233;SDS011;26968;42.686;23.352;2023-12-20T07:41:37;179.88;;;66.30;;
41233;SDS011;26968;42.686;23.352;2023-12-20T07:44:04;157.88;;;64.20;;
41233;SDS011;26968;42.686;23.352;2023-12-20T07:46:30;165.13;;;64.38;;
41233;SDS011;26968;42.686;23.352;2023-12-20T07:48:55;154.68;;;62.78;;
41233;SDS011;26968;42.686;23.352;2023-12-20T07:51:21;158.82;;;63.28;;
41233;SDS011;26968;42.686;23.352;2023-12-20T07:53:46;163.65;;;62.50;;
41233;SDS011;26968;42.686;23.352;2023-12-20T07:56:15;151.93;;;60.88;;
41233;SDS011;26968;42.686;23.352;2023-12-20T07:58:41;148.23;;;58.90;;
41233;SDS011;26968;42.686;23.352;2023-12-20T08:01:07;142.23;;;58.33;;
41233;SDS011;26968;42.686;23.352;2023-12-20T08:03:33;173.43;;;63.22;;
41233;SDS011;26968;42.686;23.352;2023-12-20T08:05:59;175.10;;;66.20;;
41233;SDS011;26968;42.686;23.352;2023-12-20T08:08:25;176.52;;;64.30;;
41233;SDS011;26968;42.686;23.352;2023-12-20T08:10:51;170.07;;;61.88;;
41233;SDS011;26968;42.686;23.352;2023-12-20T08:13:16;178.20;;;67.57;;
41233;SDS011;26968;42.686;23.352;2023-12-20T08:15:42;161.13;;;62.20;;
41233;SDS011;26968;42.686;23.352;2023-12-20T08:18:07;165.90;;;63.47;;
41233;SDS011;26968;42.686;23.352;2023-12-20T08:20:33;151.05;;;60.33;;
41233;SDS011;26968;42.686;23.352;2023-12-20T08:22:58;135.27;;;53.42;;
41233;SDS011;26968;42.686;23.352;2023-12-20T08:25:24;142.95;;;55.10;;
41233;SDS011;26968;42.686;23.352;2023-12-20T08:27:49;141.25;;;54.05;;
41233;SDS011;26968;42.686;23.352;2023-12-20T08:30:15;148.27;;;59.53;;
41233;SDS011;26968;42.686;23.352;2023-12-20T08:32:45;133.52;;;59.03;;
41233;SDS011;26968;42.686;23.352;2023-12-20T08:35:11;153.68;;;61.35;;
41233;SDS011;26968;42.686;23.352;2023-12-20T08:37:36;168.05;;;66.03;;
41233;SDS011;26968;42.686;23.352;2023-12-20T08:40:02;150.93;;;63.03;;
41233;SDS011;26968;42.686;23.352;2023-12-20T08:42:28;172.43;;;64.18;;
41233;SDS011;26968;42.686;23.352;2023-12-20T08:44:56;148.13;;;61.78;;
41233;SDS011;26968;42.686;23.352;2023-12-20T08:47:23;145.02;;;56.15;;
41233;SDS011;26968;42.686;23.352;2023-12-20T08:49:49;164.77;;;58.30;;
41233;SDS011;26968;42.686;23.352;2023-12-20T08:52:15;166.02;;;60.20;;
41233;SDS011;26968;42.686;23.352;2023-12-20T08:54:40;164.80;;;59.38;;
41233;SDS011;26968;42.686;23.352;2023-12-20T08:57:06;186.40;;;67.05;;
41233;SDS011;26968;42.686;23.352;2023-12-20T08:59:32;197.55;;;64.55;;
41233;SDS011;26968;42.686;23.352;2023-12-20T09:01:58;185.43;;;67.55;;
41233;SDS011;26968;42.686;23.352;2023-12-20T09:04:23;216.70;;;69.10;;
41233;SDS011;26968;42.686;23.352;2023-12-20T09:06:49;197.82;;;66.55;;
41233;SDS011;26968;42.686;23.352;2023-12-20T09:09:20;193.60;;;69.50;;
41233;SDS011;26968;42.686;23.352;2023-12-20T09:14:13;196.45;;;66.40;;
41233;SDS011;26968;42.686;23.352;2023-12-20T09:16:39;193.32;;;64.13;;
41233;SDS011;26968;42.686;23.352;2023-12-20T09:19:04;177.30;;;57.67;;
41233;SDS011;26968;42.686;23.352;2023-12-20T09:21:30;176.95;;;56.78;;
41233;SDS011;26968;42.686;23.352;2023-12-20T09:23:56;162.52;;;56.80;;
41233;SDS011;26968;42.686;23.352;2023-12-20T09:26:21;172.98;;;61.22;;
41233;SDS011;26968;42.686;23.352;2023-12-20T09:28:47;190.57;;;64.07;;
41233;SDS011;26968;42.686;23.352;2023-12-20T09:31:12;169.40;;;58.75;;
41233;SDS011;26968;42.686;23.352;2023-12-20T09:33:38;150.40;;;50.38;;
41233;SDS011;26968;42.686;23.352;2023-12-20T09:36:04;143.48;;;52.47;;
41233;SDS011;26968;42.686;23.352;2023-12-20T09:38:30;140.20;;;50.03;;
41233;SDS011;26968;42.686;23.352;2023-12-20T09:40:56;137.80;;;49.65;;
41233;SDS011;26968;42.686;23.352;2023-12-20T09:43:24;144.38;;;52.65;;
41233;SDS011;26968;42.686;23.352;2023-12-20T09:45:57;159.02;;;52.97;;
41233;SDS011;26968;42.686;23.352;2023-12-20T09:48:27;155.43;;;54.97;;
41233;SDS011;26968;42.686;23.352;2023-12-20T09:50:53;173.57;;;54.25;;
41233;SDS011;26968;42.686;23.352;2023-12-20T09:53:19;173.52;;;55.33;;
41233;SDS011;26968;42.686;23.352;2023-12-20T09:55:48;168.02;;;53.85;;
41233;SDS011;26968;42.686;23.352;2023-12-20T09:58:14;176.52;;;54.08;;
41233;SDS011;26968;42.686;23.352;2023-12-20T10:00:40;174.07;;;55.10;;
41233;SDS011;26968;42.686;23.352;2023-12-20T10:03:06;154.38;;;54.30;;
41233;SDS011;26968;42.686;23.352;2023-12-20T10:05:32;178.00;;;56.83;;
41233;SDS011;26968;42.686;23.352;2023-12-20T10:07:59;178.57;;;59.58;;
41233;SDS011;26968;42.686;23.352;2023-12-20T10:10:26;169.60;;;56.40;;
41233;SDS011;26968;42.686;23.352;2023-12-20T10:15:50;170.07;;;54.72;;
41233;SDS011;26968;42.686;23.352;2023-12-20T10:18:16;163.90;;;55.25;;
41233;SDS011;26968;42.686;23.352;2023-12-20T10:20:41;176.57;;;56.40;;
41233;SDS011;26968;42.686;23.352;2023-12-20T10:23:10;156.48;;;54.97;;
41233;SDS011;26968;42.686;23.352;2023-12-20T10:25:36;166.98;;;56.42;;
41233;SDS011;26968;42.686;23.352;2023-12-20T10:28:14;165.07;;;59.85;;
41233;SDS011;26968;42.686;23.352;2023-12-20T10:30:45;150.98;;;55.35;;
41233;SDS011;26968;42.686;23.352;2023-12-20T10:33:10;165.60;;;60.00;;
41233;SDS011;26968;42.686;23.352;2023-12-20T10:35:36;162.60;;;59.42;;
41233;SDS011;26968;42.686;23.352;2023-12-20T10:38:03;174.02;;;61.70;;
41233;SDS011;26968;42.686;23.352;2023-12-20T10:40:31;164.48;;;59.17;;
41233;SDS011;26968;42.686;23.352;2023-12-20T10:43:01;195.15;;;63.58;;
41233;SDS011;26968;42.686;23.352;2023-12-20T10:45:27;188.38;;;66.00;;
41233;SDS011;26968;42.686;23.352;2023-12-20T10:47:53;221.85;;;69.70;;
41233;SDS011;26968;42.686;23.352;2023-12-20T10:50:19;175.10;;;62.67;;
41233;SDS011;26968;42.686;23.352;2023-12-20T10:52:46;200.60;;;64.55;;
41233;SDS011;26968;42.686;23.352;2023-12-20T10:55:13;192.90;;;68.25;;
41233;SDS011;26968;42.686;23.352;2023-12-20T10:57:39;191.80;;;69.07;;
41233;SDS011;26968;42.686;23.352;2023-12-20T11:00:05;200.35;;;68.45;;
41233;SDS011;26968;42.686;23.352;2023-12-20T11:02:38;205.90;;;71.10;;
41233;SDS011;26968;42.686;23.352;2023-12-20T11:08:10;202.32;;;69.57;;
41233;SDS011;26968;42.686;23.352;2023-12-20T11:13:31;187.32;;;67.88;;
41233;SDS011;26968;42.686;23.352;2023-12-20T11:15:59;192.88;;;68.50;;
41233;SDS011;26968;42.686;23.352;2023-12-20T11:18:29;182.38;;;66.22;;
41233;SDS011;26968;42.686;23.352;2023-12-20T11:21:01;177.23;;;65.43;;
41233;SDS011;26968;42.686;23.352;2023-12-20T11:23:29;166.75;;;65.32;;
41233;SDS011;26968;42.686;23.352;2023-12-20T11:25:58;182.90;;;69.47;;
41233;SDS011;26968;42.686;23.352;2023-12-20T11:28:24;165.07;;;63.22;;
41233;SDS011;26968;42.686;23.352;2023-12-20T11:30:51;160.48;;;65.82;;
41233;SDS011;26968;42.686;23.352;2023-12-20T11:33:20;172.98;;;68.07;;
41233;SDS011;26968;42.686;23.352;2023-12-20T11:35:50;164.02;;;63.85;;
41233;SDS011;26968;42.686;23.352;2023-12-20T11:38:16;170.43;;;63.70;;
41233;SDS011;26968;42.686;23.352;2023-12-20T11:40:47;169.68;;;66.40;;
41233;SDS011;26968;42.686;23.352;2023-12-20T11:46:05;160.93;;;63.55;;
41233;SDS011;26968;42.686;23.352;2023-12-20T11:48:31;156.15;;;61.08;;
41233;SDS011;26968;42.686;23.352;2023-12-20T11:50:58;148.45;;;58.25;;
41233;SDS011;26968;42.686;23.352;2023-12-20T11:53:23;154.27;;;60.38;;
41233;SDS011;26968;42.686;23.352;2023-12-20T11:55:49;152.13;;;57.63;;
41233;SDS011;26968;42.686;23.352;2023-12-20T11:58:15;158.63;;;64.65;;
41233;SDS011;26968;42.686;23.352;2023-12-20T12:00:41;153.20;;;62.50;;
41233;SDS011;26968;42.686;23.352;2023-12-20T12:03:08;166.18;;;61.25;;
41233;SDS011;26968;42.686;23.352;2023-12-20T12:05:40;160.00;;;60.80;;
41233;SDS011;26968;42.686;23.352;2023-12-20T12:08:09;168.32;;;64.85;;
41233;SDS011;26968;42.686;23.352;2023-12-20T12:10:35;173.55;;;65.47;;
41233;SDS011;26968;42.686;23.352;2023-12-20T12:13:01;175.70;;;67.15;;
41233;SDS011;26968;42.686;23.352;2023-12-20T12:15:26;191.15;;;68.45;;
41233;SDS011;26968;42.686;23.352;2023-12-20T12:17:55;193.48;;;67.28;;
41233;SDS011;26968;42.686;23.352;2023-12-20T12:20:22;175.07;;;64.05;;
41233;SDS011;26968;42.686;23.352;2023-12-20T12:22:58;187.80;;;63.17;;
41233;SDS011;26968;42.686;23.352;2023-12-20T12:25:32;184.55;;;66.07;;
41233;SDS011;26968;42.686;23.352;2023-12-20T12:32:36;173.57;;;61.67;;
41233;SDS011;26968;42.686;23.352;2023-12-20T12:35:05;179.18;;;62.47;;
41233;SDS011;26968;42.686;23.352;2023-12-20T12:37:34;164.07;;;61.08;;
41233;SDS011;26968;42.686;23.352;2023-12-20T12:40:04;170.60;;;63.53;;
41233;SDS011;26968;42.686;23.352;2023-12-20T12:42:30;173.25;;;62.17;;
41233;SDS011;26968;42.686;23.352;2023-12-20T12:44:56;171.25;;;62.25;;
41233;SDS011;26968;42.686;23.352;2023-12-20T12:47:21;161.75;;;63.17;;
41233;SDS011;26968;42.686;23.352;2023-12-20T12:49:47;186.93;;;64.25;;
41233;SDS011;26968;42.686;23.352;2023-12-20T12:52:16;180.65;;;66.28;;
41233;SDS011;26968;42.686;23.352;2023-12-20T12:54:41;177.18;;;64.32;;
41233;SDS011;26968;42.686;23.352;2023-12-20T12:57:07;172.95;;;67.50;;
41233;SDS011;26968;42.686;23.352;2023-12-20T12:59:33;218.75;;;75.95;;
41233;SDS011;26968;42.686;23.352;2023-12-20T13:02:06;237.05;;;79.53;;
41233;SDS011;26968;42.686;23.352;2023-12-20T13:04:47;213.93;;;79.32;;
41233;SDS011;26968;42.686;23.352;2023-12-20T13:07:12;209.75;;;75.70;;
41233;SDS011;26968;42.686;23.352;2023-12-20T13:09:47;192.32;;;69.57;;
41233;SDS011;26968;42.686;23.352;2023-12-20T13:12:22;179.77;;;65.78;;
41233;SDS011;26968;42.686;23.352;2023-12-20T13:14:47;202.90;;;72.18;;
41233;SDS011;26968;42.686;23.352;2023-12-20T13:17:13;213.23;;;74.65;;
41233;SDS011;26968;42.686;23.352;2023-12-20T13:19:38;192.38;;;69.80;;
41233;SDS011;26968;42.686;23.352;2023-12-20T13:22:04;207.13;;;73.95;;
41233;SDS011;26968;42.686;23.352;2023-12-20T13:24:32;217.05;;;79.20;;
41233;SDS011;26968;42.686;23.352;2023-12-20T13:26:58;209.65;;;74.78;;
41233;SDS011;26968;42.686;23.352;2023-12-20T13:29:24;210.80;;;72.43;;
41233;SDS011;26968;42.686;23.352;2023-12-20T13:31:55;207.10;;;71.05;;
41233;SDS011;26968;42.686;23.352;2023-12-20T13:34:20;220.02;;;72.55;;
41233;SDS011;26968;42.686;23.352;2023-12-20T13:36:46;185.23;;;66.32;;
41233;SDS011;26968;42.686;23.352;2023-12-20T13:39:13;183.35;;;64.90;;
41233;SDS011;26968;42.686;23.352;2023-12-20T13:41:39;195.10;;;69.18;;
41233;SDS011;26968;42.686;23.352;2023-12-20T13:44:05;206.93;;;70.95;;
41233;SDS011;26968;42.686;23.352;2023-12-20T13:46:30;177.02;;;61.10;;
41233;SDS011;26968;42.686;23.352;2023-12-20T13:48:56;182.15;;;63.03;;
41233;SDS011;26968;42.686;23.352;2023-12-20T13:51:22;177.15;;;60.05;;
41233;SDS011;26968;42.686;23.352;2023-12-20T13:53:48;164.50;;;59.80;;
41233;SDS011;26968;42.686;23.352;2023-12-20T13:56:14;203.20;;;67.38;;
41233;SDS011;26968;42.686;23.352;2023-12-20T13:58:40;222.77;;;69.57;;
41233;SDS011;26968;42.686;23.352;2023-12-20T14:01:07;209.23;;;68.80;;
41233;SDS011;26968;42.686;23.352;2023-12-20T14:03:35;200.18;;;66.20;;
41233;SDS011;26968;42.686;23.352;2023-12-20T14:06:01;193.77;;;66.80;;
41233;SDS011;26968;42.686;23.352;2023-12-20T14:08:26;203.40;;;66.90;;
41233;SDS011;26968;42.686;23.352;2023-12-20T14:10:52;187.50;;;64.40;;